Current | Forecast
Updated: 11:30 PM MSK on December 13, 2017
Observed at Adler, Georgia
Temperature 46°F
Humidity 53%
Dew Point 30°F
Wind North at 0 mph
Pressure 30.06 in (Steady)
Conditions Clear
Visibility 6.2 miles
UV N/A
Clouds
Yesterday's Maximum 59°F
Yesterday's Minimum 39°F approx.
Yesterday's Heating Degree Days 16 approx.
Sunrise8:44 AM +04
Sunset5:43 PM +04
Moon Rise4:41 AM +04
Moon Set3:47 PM +04
Moon PhaseMoon Phase
Waning Crescent
Raw METARMETAR URSS 132030Z 00000MPS 9999 NSC 08/M01 Q1018 R06/090070 R02/090070 NOSIG RMK R02/05005MPS QFE762


Monday
. High: 66° F.
Tuesday
. High: 60° F.
Wednesday
. High: 60° F.
Thursday
. High: 57° F.
Friday
. High: 59° F.
Saturday
. High: 64° F.
Sunday
. High: 62° F.
Monday
. High: 59° F.

Units: English | Metric

Find the Weather for any City, State or Zipcode, or Country:

U.S. State List | Severe Weather | Tropical Storms | Ski Conditions
United States | Canada | Central America | South America | Asia | Europe | Australia | Africa | Islands

Weather Underground

© Copyright 2017
The Weather Company, LLC